Main page
METAR-TAF:

METAR-TAF

Airports :

Jack Barstow Municipal Airport

Midland, Michigan, United States

latitude: 43-39-46N, longitude: 084-15-41W, elevation: 636 ft

Current weather observation

The report was made 25 minutes ago, at 17:55 UTC
Calm wind
Temperature 45°F
Humidity 49%
Pressure 30.24 in. Hg
Visibility: 10 miles
Broken clouds at a height of 3800 ft

METAR: KIKW 241755Z AUTO 00000KT 10SM BKN038 07/M03 A3024 RMK AO2 T00671035 10070 20023

Time: 14:20 (18:20 UTC)


TAF: missing

Weather observations and forecasts of more than 4000 airports (METAR and TAF reports).

The available stations are represented by yellow and red dots on the map.

Hover mouse over dot to see the name of the station.

Then click to see weather observations and forecasts.

To change the map : click on the green buttons with a black cross to zoom in, on the green button with a dash to zoom out, or on the green arrows for adjacent maps.


METAR-TAF: